Accueil
METAR-TAF:

METAR-TAF

Aéroports :

Hahn, Allemagne

Aéroport de Francfort-Hahn

latitude: 49-57N, longitude: 007-16E, altitude: 491 m

Observation

Le bulletin a été fait il y a 34 minutes, à 20:50 UTC
Vent 4 kt de ouest/nord-ouest
Température 4°C
Humidité 70%
Pression 1013 hPa
Visibilité 10 km ou plus
pas de nuages en-dessous de 1500 mètres et pas de cumulonimbus.

METAR: EDFH 262050Z 29004KT CAVOK 04/M01 Q1013

Heure: 23:24 (21:24 UTC)

Prévision

Le bulletin a été fait il y a 4 heures et 24 minutes, à 17:00 UTC
Prévision valable du 26 à 18 UTC au 27 à 18 UTC
Vent 5 kt de nord/nord-ouest
Visibilité 10 km ou plus
Nuages épars à une hauteur de 4000 ft
Probabilité 30% :
Temporairement
du 27 à 03 UTC au 27 à 08 UTC
Visibilité: 4000 m
Nuages fragmentés à une hauteur de 800 ft
brume

TAF: EDFH 261700Z 2618/2718 34005KT 9999 SCT040 PROB30 TEMPO 2703/2708 4000 BR BKN008

Observations et prévisions météorologiques de plus de 4000 aéroports (messages METAR et TAF).

Les stations disponibles sont représentées par des disques jaunes et rouges sur la carte.

Passer la souris dessus pour voir le nom de la station.

Cliquer dessus pour voir les observations et prévisions météorologiques.

Pour changer de carte: cliquez sur les boutons verts avec une croix noire pour zoomer, sur le bouton vert avec un tiret pour effectuer un zoom arrière, ou sur les flèches vertes pour les cartes adjacentes.


METAR-TAF: